Empire State — WDE4431 — position and weather

sailwx.info

Track history (hours):
 
Tides and Currents Weather Stations Pressure Air Temp Water Temp Dewpoint Dewpoint Depression Visibility Wind Speed Wind Dir Waves Ship Positions

Empire State

More information available from US FCC via Universal Licensing System and Coast Guard Vessel Documentation Center.

Last reported at 2014-Sep-20 05:27 UTC. Time now 2014-Sep-20 10:01 UTC.
Position N 38°04' W 122°15'.

Length 183 m; draft 8.5 m.

Type: Military. MMSI: 367353080.

Date/timePositionNaut miles runAvg speedWind from/ knotsBaromVisibWave heightAir tempDewpointWater temp
2014-Sep-20 05:27N 38°04' W 122°15'0 0.0
2014-Sep-20 04:33N 38°04' W 122°15'0 0.0
2014-Sep-19 08:33N 38°04' W 122°15'4 4.4
2014-Sep-19 07:34N 38°03' W 122°20'8 8.2
2014-Sep-19 06:34N 37°57' W 122°27'2 2.1
2014-Sep-19 05:34N 37°55' W 122°25'0 0.1
2014-Sep-19 04:31N 37°55' W 122°25'0 0.0
2014-Sep-19 03:31N 37°55' W 122°25'0 0.0
2014-Sep-19 02:31N 37°55' W 122°25'0 0.0
2014-Sep-19 01:31N 37°55' W 122°25'0 0.0
2014-Sep-19 00:31N 37°55' W 122°25'0 0.0
2014-Sep-18 23:31N 37°55' W 122°25'0 0.0
2014-Sep-18 22:31N 37°55' W 122°25'0 0.0
2014-Sep-18 21:31N 37°55' W 122°25'0 0.0
2014-Sep-18 20:31N 37°55' W 122°25'0 0.0
2014-Sep-18 19:31N 37°55' W 122°25'0 0.0
2014-Sep-18 18:31N 37°55' W 122°25'0 0.0
2014-Sep-18 17:31N 37°55' W 122°25'0 0.0
2014-Sep-18 16:31N 37°55' W 122°25'0 0.0
2014-Sep-18 15:31N 37°55' W 122°25'0 0.0
2014-Sep-18 14:31N 37°55' W 122°25'0 0.0
2014-Sep-18 13:31N 37°55' W 122°25'0 0.0
2014-Sep-18 12:31N 37°55' W 122°25'0 0.0
2014-Sep-18 11:31N 37°55' W 122°25'0 0.0
2014-Sep-18 10:31N 37°55' W 122°25'0 0.0
2014-Sep-18 09:31N 37°55' W 122°25'0 0.0
2014-Sep-18 08:31N 37°55' W 122°25'0 0.0
2014-Sep-18 07:31N 37°55' W 122°25'0 0.0
2014-Sep-18 06:31N 37°55' W 122°25'0 0.0
2014-Sep-18 05:31N 37°55' W 122°25'0 0.0
2014-Sep-18 04:31N 37°55' W 122°25'0 0.0
2014-Sep-18 03:31N 37°55' W 122°25'0 0.0
2014-Sep-18 02:31N 37°55' W 122°25'0 0.0
2014-Sep-18 01:31N 37°55' W 122°25'0 0.0
2014-Sep-18 00:31N 37°55' W 122°25'0 0.0
2014-Sep-17 23:31N 37°55' W 122°25'0 0.0
2014-Sep-17 22:31N 37°55' W 122°25'0 0.0
2014-Sep-17 21:31N 37°55' W 122°25'0 0.0
2014-Sep-17 20:31N 37°55' W 122°25'0 0.0
2014-Sep-17 19:31N 37°55' W 122°25'0 0.0
2014-Sep-17 18:31N 37°55' W 122°25'0 0.0
2014-Sep-17 17:31N 37°55' W 122°25'0 0.0
2014-Sep-17 16:31N 37°55' W 122°25'0 0.0
2014-Sep-17 15:31N 37°55' W 122°25'0 0.0
2014-Sep-17 14:33N 37°55' W 122°25'0 0.0
2014-Sep-17 13:33N 37°55' W 122°25'2 1.8
2014-Sep-17 12:33N 37°54' W 122°25'9 9.1
2014-Sep-17 11:34N 37°45' W 122°20'0 0.0
2014-Sep-17 10:32N 37°45' W 122°20'0 0.1
2014-Sep-17 09:32N 37°46' W 122°20'0 0.0
2014-Sep-17 08:32N 37°46' W 122°20'0 0.0
2014-Sep-17 07:32N 37°46' W 122°20'0 0.0
2014-Sep-17 06:32N 37°46' W 122°20'0 0.0
2014-Sep-17 05:32N 37°46' W 122°20'0 0.0
2014-Sep-17 04:32N 37°46' W 122°20'0 0.0
2014-Sep-17 03:32N 37°46' W 122°20'0 0.1
2014-Sep-17 02:32N 37°46' W 122°20'0 0.1
2014-Sep-17 01:32N 37°45' W 122°20'0 0.0
2014-Sep-17 00:32N 37°45' W 122°20'0 0.0
2014-Sep-16 23:33N 37°45' W 122°20'6 6.3
2014-Sep-16 22:34N 37°49' W 122°27'1212.5
2014-Sep-16 21:34N 37°45' W 122°41'1010.2
2014-Sep-16 20:33N 37°38' W 122°52'1110.7
2014-Sep-16 19:33N 37°33' W 123°03'1212.0
2014-Sep-16 18:33N 37°33' W 123°18'1313.1
2014-Sep-16 17:34N 37°35' W 123°35'1212.1
2014-Sep-16 16:33N 37°36' W 123°50'1312.6
2014-Sep-16 15:33N 37°37' W 124°06'1212.3
2014-Sep-16 14:33N 37°39' W 124°21'1110.6
2014-Sep-16 13:33N 37°48' W 124°28'10 9.8
2014-Sep-16 12:33N 37°57' W 124°33'1413.9
2014-Sep-16 11:33N 38°10' W 124°40'1313.3
2014-Sep-16 10:33N 38°22' W 124°47'1413.7
2014-Sep-16 09:33N 38°35' W 124°53'2013.7
2014-Sep-16 08:06N 38°53' W 125°04'19313.0
2014-Sep-15 17:14N 42°03' W 125°46'1214.1
2014-Sep-15 16:23N 42°15' W 125°46'16514.9
2014-Sep-15 05:20N 44°59' W 125°31'4815.2
2014-Sep-15 02:11N 45°45' W 125°13'2314.5
2014-Sep-15 00:33N 46°01' W 124°47'1515.0
2014-Sep-14 23:34N 46°08' W 124°29'1414.5
2014-Sep-14 22:34N 46°13' W 124°09'1110.6
2014-Sep-14 21:33N 46°11' W 123°54'1110.8
2014-Sep-14 20:33N 46°15' W 123°40'5510.3
2014-Sep-14 15:15N 45°38' W 122°42'0 0.2
2014-Sep-14 14:32N 45°38' W 122°42'0 0.0
2014-Sep-14 13:32N 45°38' W 122°42'0 0.0
2014-Sep-14 12:26N 45°38' W 122°42'0 0.0
2014-Sep-14 11:26N 45°38' W 122°42'0 0.0
2014-Sep-14 10:26N 45°38' W 122°42'0 0.0
2014-Sep-14 09:32N 45°38' W 122°42'0 0.0
2014-Sep-14 05:14N 45°38' W 122°42'0 0.0
2014-Sep-14 03:14N 45°38' W 122°42'0 0.0
2014-Sep-14 02:26N 45°38' W 122°42'0 0.0
2014-Sep-13 21:20N 45°38' W 122°42'0 0.0
2014-Sep-13 12:32N 45°38' W 122°42'0 0.0
2014-Sep-13 10:26N 45°38' W 122°42'0 0.0
2014-Sep-13 09:34N 45°38' W 122°42'4 4.3
2014-Sep-13 08:34N 45°41' W 122°47'44 8.9
2014-Sep-13 03:33N 46°15' W 123°27'1110.9
2014-Sep-13 02:33N 46°14' W 123°43'9 9.3
2014-Sep-13 01:34N 46°12' W 123°56'10 9.9
2014-Sep-13 00:34N 46°13' W 124°10'1312.7
2014-Sep-12 23:33N 46°16' W 124°28'1514.6
2014-Sep-12 22:33N 46°27' W 124°41'10214.5
2014-Sep-12 15:33N 48°06' W 125°18'1514.7
2014-Sep-12 14:34N 48°20' W 125°13'1414.0
2014-Sep-12 13:33N 48°31' W 124°59'1414.3
2014-Sep-12 12:33N 48°29' W 124°38'1414.1
2014-Sep-12 11:33N 48°24' W 124°18'1414.2
2014-Sep-12 10:33N 48°18' W 123°58'1514.9
2014-Sep-12 09:33N 48°16' W 123°36'1313.1
2014-Sep-12 08:34N 48°09' W 123°19'1414.3
2014-Sep-12 07:33N 48°18' W 123°03'1414.1
2014-Sep-12 06:33N 48°27' W 122°46'8 8.3
2014-Sep-12 05:33N 48°31' W 122°35'0 0.2
2014-Sep-12 04:31N 48°31' W 122°35'0 0.0
2014-Sep-12 03:31N 48°31' W 122°35'0 0.0
2014-Sep-12 02:31N 48°31' W 122°35'0 0.0
2014-Sep-12 01:25N 48°31' W 122°35'0 0.0
2014-Sep-12 00:31N 48°31' W 122°35'0 0.0
2014-Sep-11 23:31N 48°31' W 122°35'0 0.0
2014-Sep-11 22:31N 48°31' W 122°35'0 0.0
2014-Sep-11 21:31N 48°31' W 122°35'0 0.0
2014-Sep-11 20:31N 48°31' W 122°35'0 0.0
2014-Sep-11 19:31N 48°31' W 122°35'0 0.0
2014-Sep-11 18:31N 48°31' W 122°35'0 0.0
2014-Sep-11 17:31N 48°31' W 122°35'0 0.0
2014-Sep-11 16:25N 48°31' W 122°35'0 0.0
2014-Sep-11 15:31N 48°31' W 122°35'0 0.0
2014-Sep-11 14:31N 48°31' W 122°35'0 0.0
2014-Sep-11 13:25N 48°31' W 122°35'0 0.0
2014-Sep-11 12:31N 48°31' W 122°35'0 0.0
2014-Sep-11 11:19N 48°31' W 122°35'0 0.0
2014-Sep-11 10:31N 48°31' W 122°35'0 0.0
2014-Sep-11 09:31N 48°31' W 122°35'0 0.0
2014-Sep-11 08:31N 48°31' W 122°35'0 0.0
2014-Sep-11 07:31N 48°31' W 122°35'0 0.0
2014-Sep-11 06:31N 48°31' W 122°35'0 0.0
2014-Sep-11 05:29N 48°31' W 122°35'0 0.0
2014-Sep-11 04:31N 48°31' W 122°35'0 0.1
2014-Sep-11 03:32N 48°31' W 122°35'4 4.1
2014-Sep-11 02:33N 48°31' W 122°41'1313.0
2014-Sep-11 01:33N 48°18' W 122°46'1311.2
2014-Sep-11 00:26N 48°07' W 122°39'1011.9
2014-Sep-10 23:33N 47°57' W 122°33'1312.7
2014-Sep-10 22:33N 47°46' W 122°26'8 7.7
2014-Sep-10 21:33N 47°38' W 122°25'0 0.1
2014-Sep-10 20:33N 47°38' W 122°25'0 0.1
2014-Sep-10 19:33N 47°38' W 122°25'0 0.0
2014-Sep-10 18:33N 47°38' W 122°25'0 0.1
2014-Sep-10 17:33N 47°38' W 122°25'0 0.1
2014-Sep-10 16:33N 47°38' W 122°25'0 0.0
2014-Sep-10 15:33N 47°38' W 122°25'0 0.0
2014-Sep-10 14:33N 47°38' W 122°25'0 0.0
2014-Sep-10 13:33N 47°38' W 122°25'0 0.1
2014-Sep-10 12:33N 47°38' W 122°25'0 0.1
2014-Sep-10 11:33N 47°38' W 122°25'0 0.0
2014-Sep-10 10:33N 47°38' W 122°25'0 0.0
2014-Sep-10 09:30N 47°38' W 122°25'0 0.1
2014-Sep-10 08:33N 47°38' W 122°25'0 0.0
2014-Sep-10 07:27N 47°38' W 122°25'0 0.1
2014-Sep-10 06:33N 47°38' W 122°25'  
Track history (hours):
 
Tides and Currents Weather Stations Pressure Air Temp Water Temp Dewpoint Dewpoint Depression Visibility Wind Speed Wind Dir Waves Ship Positions

Empire State

More information available from US FCC via Universal Licensing System and Coast Guard Vessel Documentation Center.

Last reported at 2014-Sep-20 05:27 UTC. Time now 2014-Sep-20 10:01 UTC.
Position N 38°04' W 122°15'.

Length 183 m; draft 8.5 m.

Type: Military. MMSI: 367353080.

Date/timePositionNaut miles runAvg speedWind from/ knotsBaromVisibWave heightAir tempDewpointWater temp
2014-Sep-20 05:27N 38°04' W 122°15'0 0.0
2014-Sep-20 04:33N 38°04' W 122°15'0 0.0
2014-Sep-19 08:33N 38°04' W 122°15'4 4.4
2014-Sep-19 07:34N 38°03' W 122°20'8 8.2
2014-Sep-19 06:34N 37°57' W 122°27'2 2.1
2014-Sep-19 05:34N 37°55' W 122°25'0 0.1
2014-Sep-19 04:31N 37°55' W 122°25'0 0.0
2014-Sep-19 03:31N 37°55' W 122°25'0 0.0
2014-Sep-19 02:31N 37°55' W 122°25'0 0.0
2014-Sep-19 01:31N 37°55' W 122°25'0 0.0
2014-Sep-19 00:31N 37°55' W 122°25'0 0.0
2014-Sep-18 23:31N 37°55' W 122°25'0 0.0
2014-Sep-18 22:31N 37°55' W 122°25'0 0.0
2014-Sep-18 21:31N 37°55' W 122°25'0 0.0
2014-Sep-18 20:31N 37°55' W 122°25'0 0.0
2014-Sep-18 19:31N 37°55' W 122°25'0 0.0
2014-Sep-18 18:31N 37°55' W 122°25'0 0.0
2014-Sep-18 17:31N 37°55' W 122°25'0 0.0
2014-Sep-18 16:31N 37°55' W 122°25'0 0.0
2014-Sep-18 15:31N 37°55' W 122°25'0 0.0
2014-Sep-18 14:31N 37°55' W 122°25'0 0.0
2014-Sep-18 13:31N 37°55' W 122°25'0 0.0
2014-Sep-18 12:31N 37°55' W 122°25'0 0.0
2014-Sep-18 11:31N 37°55' W 122°25'0 0.0
2014-Sep-18 10:31N 37°55' W 122°25'0 0.0
2014-Sep-18 09:31N 37°55' W 122°25'0 0.0
2014-Sep-18 08:31N 37°55' W 122°25'0 0.0
2014-Sep-18 07:31N 37°55' W 122°25'0 0.0
2014-Sep-18 06:31N 37°55' W 122°25'0 0.0
2014-Sep-18 05:31N 37°55' W 122°25'0 0.0
2014-Sep-18 04:31N 37°55' W 122°25'0 0.0
2014-Sep-18 03:31N 37°55' W 122°25'0 0.0
2014-Sep-18 02:31N 37°55' W 122°25'0 0.0
2014-Sep-18 01:31N 37°55' W 122°25'0 0.0
2014-Sep-18 00:31N 37°55' W 122°25'0 0.0
2014-Sep-17 23:31N 37°55' W 122°25'0 0.0
2014-Sep-17 22:31N 37°55' W 122°25'0 0.0
2014-Sep-17 21:31N 37°55' W 122°25'0 0.0
2014-Sep-17 20:31N 37°55' W 122°25'0 0.0
2014-Sep-17 19:31N 37°55' W 122°25'0 0.0
2014-Sep-17 18:31N 37°55' W 122°25'0 0.0
2014-Sep-17 17:31N 37°55' W 122°25'0 0.0
2014-Sep-17 16:31N 37°55' W 122°25'0 0.0
2014-Sep-17 15:31N 37°55' W 122°25'0 0.0
2014-Sep-17 14:33N 37°55' W 122°25'0 0.0
2014-Sep-17 13:33N 37°55' W 122°25'2 1.8
2014-Sep-17 12:33N 37°54' W 122°25'9 9.1
2014-Sep-17 11:34N 37°45' W 122°20'0 0.0
2014-Sep-17 10:32N 37°45' W 122°20'0 0.1
2014-Sep-17 09:32N 37°46' W 122°20'0 0.0
2014-Sep-17 08:32N 37°46' W 122°20'0 0.0
2014-Sep-17 07:32N 37°46' W 122°20'0 0.0
2014-Sep-17 06:32N 37°46' W 122°20'0 0.0
2014-Sep-17 05:32N 37°46' W 122°20'0 0.0
2014-Sep-17 04:32N 37°46' W 122°20'0 0.0
2014-Sep-17 03:32N 37°46' W 122°20'0 0.1
2014-Sep-17 02:32N 37°46' W 122°20'0 0.1
2014-Sep-17 01:32N 37°45' W 122°20'0 0.0
2014-Sep-17 00:32N 37°45' W 122°20'0 0.0
2014-Sep-16 23:33N 37°45' W 122°20'6 6.3
2014-Sep-16 22:34N 37°49' W 122°27'1212.5
2014-Sep-16 21:34N 37°45' W 122°41'1010.2
2014-Sep-16 20:33N 37°38' W 122°52'1110.7
2014-Sep-16 19:33N 37°33' W 123°03'1212.0
2014-Sep-16 18:33N 37°33' W 123°18'1313.1
2014-Sep-16 17:34N 37°35' W 123°35'1212.1
2014-Sep-16 16:33N 37°36' W 123°50'1312.6
2014-Sep-16 15:33N 37°37' W 124°06'1212.3
2014-Sep-16 14:33N 37°39' W 124°21'1110.6
2014-Sep-16 13:33N 37°48' W 124°28'10 9.8
2014-Sep-16 12:33N 37°57' W 124°33'1413.9
2014-Sep-16 11:33N 38°10' W 124°40'1313.3
2014-Sep-16 10:33N 38°22' W 124°47'1413.7
2014-Sep-16 09:33N 38°35' W 124°53'2013.7
2014-Sep-16 08:06N 38°53' W 125°04'19313.0
2014-Sep-15 17:14N 42°03' W 125°46'1214.1
2014-Sep-15 16:23N 42°15' W 125°46'16514.9
2014-Sep-15 05:20N 44°59' W 125°31'4815.2
2014-Sep-15 02:11N 45°45' W 125°13'2314.5
2014-Sep-15 00:33N 46°01' W 124°47'1515.0
2014-Sep-14 23:34N 46°08' W 124°29'1414.5
2014-Sep-14 22:34N 46°13' W 124°09'1110.6
2014-Sep-14 21:33N 46°11' W 123°54'1110.8
2014-Sep-14 20:33N 46°15' W 123°40'5510.3
2014-Sep-14 15:15N 45°38' W 122°42'0 0.2
2014-Sep-14 14:32N 45°38' W 122°42'0 0.0
2014-Sep-14 13:32N 45°38' W 122°42'0 0.0
2014-Sep-14 12:26N 45°38' W 122°42'0 0.0
2014-Sep-14 11:26N 45°38' W 122°42'0 0.0
2014-Sep-14 10:26N 45°38' W 122°42'0 0.0
2014-Sep-14 09:32N 45°38' W 122°42'0 0.0
2014-Sep-14 05:14N 45°38' W 122°42'0 0.0
2014-Sep-14 03:14N 45°38' W 122°42'0 0.0
2014-Sep-14 02:26N 45°38' W 122°42'0 0.0
2014-Sep-13 21:20N 45°38' W 122°42'0 0.0
2014-Sep-13 12:32N 45°38' W 122°42'0 0.0
2014-Sep-13 10:26N 45°38' W 122°42'0 0.0
2014-Sep-13 09:34N 45°38' W 122°42'4 4.3
2014-Sep-13 08:34N 45°41' W 122°47'44 8.9
2014-Sep-13 03:33N 46°15' W 123°27'1110.9
2014-Sep-13 02:33N 46°14' W 123°43'9 9.3
2014-Sep-13 01:34N 46°12' W 123°56'10 9.9
2014-Sep-13 00:34N 46°13' W 124°10'1312.7
2014-Sep-12 23:33N 46°16' W 124°28'1514.6
2014-Sep-12 22:33N 46°27' W 124°41'10214.5
2014-Sep-12 15:33N 48°06' W 125°18'1514.7
2014-Sep-12 14:34N 48°20' W 125°13'1414.0
2014-Sep-12 13:33N 48°31' W 124°59'1414.3
2014-Sep-12 12:33N 48°29' W 124°38'1414.1
2014-Sep-12 11:33N 48°24' W 124°18'1414.2
2014-Sep-12 10:33N 48°18' W 123°58'1514.9
2014-Sep-12 09:33N 48°16' W 123°36'1313.1
2014-Sep-12 08:34N 48°09' W 123°19'1414.3
2014-Sep-12 07:33N 48°18' W 123°03'1414.1
2014-Sep-12 06:33N 48°27' W 122°46'8 8.3
2014-Sep-12 05:33N 48°31' W 122°35'0 0.2
2014-Sep-12 04:31N 48°31' W 122°35'0 0.0
2014-Sep-12 03:31N 48°31' W 122°35'0 0.0
2014-Sep-12 02:31N 48°31' W 122°35'0 0.0
2014-Sep-12 01:25N 48°31' W 122°35'0 0.0
2014-Sep-12 00:31N 48°31' W 122°35'0 0.0
2014-Sep-11 23:31N 48°31' W 122°35'0 0.0
2014-Sep-11 22:31N 48°31' W 122°35'0 0.0
2014-Sep-11 21:31N 48°31' W 122°35'0 0.0
2014-Sep-11 20:31N 48°31' W 122°35'0 0.0
2014-Sep-11 19:31N 48°31' W 122°35'0 0.0
2014-Sep-11 18:31N 48°31' W 122°35'0 0.0
2014-Sep-11 17:31N 48°31' W 122°35'0 0.0
2014-Sep-11 16:25N 48°31' W 122°35'0 0.0
2014-Sep-11 15:31N 48°31' W 122°35'0 0.0
2014-Sep-11 14:31N 48°31' W 122°35'0 0.0
2014-Sep-11 13:25N 48°31' W 122°35'0 0.0
2014-Sep-11 12:31N 48°31' W 122°35'0 0.0
2014-Sep-11 11:19N 48°31' W 122°35'0 0.0
2014-Sep-11 10:31N 48°31' W 122°35'0 0.0
2014-Sep-11 09:31N 48°31' W 122°35'0 0.0
2014-Sep-11 08:31N 48°31' W 122°35'0 0.0
2014-Sep-11 07:31N 48°31' W 122°35'0 0.0
2014-Sep-11 06:31N 48°31' W 122°35'0 0.0
2014-Sep-11 05:29N 48°31' W 122°35'0 0.0
2014-Sep-11 04:31N 48°31' W 122°35'0 0.1
2014-Sep-11 03:32N 48°31' W 122°35'4 4.1
2014-Sep-11 02:33N 48°31' W 122°41'1313.0
2014-Sep-11 01:33N 48°18' W 122°46'1311.2
2014-Sep-11 00:26N 48°07' W 122°39'1011.9
2014-Sep-10 23:33N 47°57' W 122°33'1312.7
2014-Sep-10 22:33N 47°46' W 122°26'8 7.7
2014-Sep-10 21:33N 47°38' W 122°25'0 0.1
2014-Sep-10 20:33N 47°38' W 122°25'0 0.1
2014-Sep-10 19:33N 47°38' W 122°25'0 0.0
2014-Sep-10 18:33N 47°38' W 122°25'0 0.1
2014-Sep-10 17:33N 47°38' W 122°25'0 0.1
2014-Sep-10 16:33N 47°38' W 122°25'0 0.0
2014-Sep-10 15:33N 47°38' W 122°25'0 0.0
2014-Sep-10 14:33N 47°38' W 122°25'0 0.0
2014-Sep-10 13:33N 47°38' W 122°25'0 0.1
2014-Sep-10 12:33N 47°38' W 122°25'0 0.1
2014-Sep-10 11:33N 47°38' W 122°25'0 0.0
2014-Sep-10 10:33N 47°38' W 122°25'0 0.0
2014-Sep-10 09:30N 47°38' W 122°25'0 0.1
2014-Sep-10 08:33N 47°38' W 122°25'0 0.0
2014-Sep-10 07:27N 47°38' W 122°25'0 0.1
2014-Sep-10 06:33N 47°38' W 122°25'  

Dump ship's entire track history